createdAt,value
2016-05-23T14:21:49.386Z,74.33
2016-05-23T14:22:48.967Z,74.04
2016-05-23T14:23:49.359Z,74.23
2016-05-23T14:24:49.175Z,74.13
2016-05-23T14:25:49.334Z,74.23
2016-05-23T14:26:49.321Z,74.23
2016-05-23T14:27:48.914Z,74.04
2016-05-23T14:28:49.108Z,74.33
2016-05-23T14:29:49.361Z,74.33
2016-05-23T14:30:48.876Z,74.13
2016-05-23T14:31:49.082Z,74.33
2016-05-23T14:32:49.274Z,74.04
2016-05-23T14:33:48.915Z,74.23
2016-05-23T14:34:49.059Z,73.85
2016-05-23T14:35:49.252Z,73.94
2016-05-23T14:36:48.892Z,73.94
2016-05-23T14:37:49.238Z,73.66
2016-05-23T14:38:49.054Z,73.98
2016-05-23T14:39:49.041Z,73.69
2016-05-23T14:40:48.825Z,73.31
2016-05-23T14:41:48.874Z,73.21
2016-05-23T14:42:49.018Z,73.02
2016-05-23T14:43:49.223Z,73.11
2016-05-23T14:44:49.023Z,73.41
2016-05-23T14:45:48.807Z,73.31
2016-05-23T14:46:48.998Z,72.83
2016-05-23T14:47:49.000Z,72.83
2016-05-23T14:48:48.784Z,72.34
2016-05-23T14:49:48.786Z,72.54
2016-05-23T14:50:48.837Z,72.34
2016-05-23T14:51:49.182Z,72.25
2016-05-23T14:52:49.185Z,72.38
2016-05-23T14:53:49.032Z,72.44
2016-05-23T14:54:49.175Z,72.48
2016-05-23T14:55:49.178Z,72.38
2016-05-23T14:56:49.164Z,72.48
2016-05-23T14:57:48.761Z,72.38
2016-05-23T14:58:49.186Z,72.48
2016-05-23T14:59:50.097Z,72.48
2016-05-23T15:00:48.956Z,72.48
2016-05-23T15:01:48.756Z,72.48
2016-05-23T15:02:48.758Z,72.48
2016-05-23T15:03:48.747Z,72.38
2016-05-23T15:04:48.749Z,72.19
2016-05-23T15:05:48.939Z,72.38
2016-05-23T15:06:49.145Z,72.29
2016-05-23T15:07:48.944Z,72.09
2016-05-23T15:08:49.135Z,71.91
2016-05-23T15:09:48.934Z,71.52
2016-05-23T15:10:48.937Z,71.55
2016-05-23T15:11:48.940Z,71.61
2016-05-23T15:12:48.943Z,71.94
2016-05-23T15:13:49.132Z,71.46
2016-05-23T15:14:49.541Z,71.26
2016-05-23T15:15:49.121Z,71.26
2016-05-23T15:16:49.124Z,71.08
2016-05-23T15:17:48.924Z,71.36
2016-05-23T15:18:48.912Z,71.26
2016-05-23T15:19:48.930Z,71.55
2016-05-23T15:20:49.120Z,70.88
2016-05-23T15:21:49.123Z,70.98
2016-05-23T15:22:48.923Z,70.98
2016-05-23T15:23:48.706Z,70.98
2016-05-23T15:24:48.912Z,70.68
2016-05-23T15:25:48.914Z,70.59
2016-05-23T15:26:48.948Z,70.88
2016-05-23T15:27:49.123Z,70.01
2016-05-23T15:28:49.110Z,70.4
2016-05-23T15:29:48.910Z,70.53
2016-05-23T15:30:48.912Z,70.15
2016-05-23T15:31:48.915Z,70.24
2016-05-23T15:32:48.700Z,69.85
2016-05-23T15:33:48.905Z,69.76
2016-05-23T15:34:48.892Z,69.95
2016-05-23T15:35:48.895Z,69.47
2016-05-23T15:36:48.897Z,69.85
2016-05-23T15:37:48.743Z,69.28
2016-05-23T15:38:48.903Z,69.38
2016-05-23T15:39:49.093Z,69.18
2016-05-23T15:40:48.893Z,69.47
2016-05-23T15:41:48.692Z,69.18
2016-05-23T15:42:48.726Z,69.18
2016-05-23T15:43:48.885Z,69.38
2016-05-23T15:44:48.888Z,68.99
2016-05-23T15:45:48.890Z,68.9
2016-05-23T15:46:48.690Z,68.9
2016-05-23T15:47:48.896Z,68.7
2016-05-23T15:48:48.930Z,68.99
2016-05-23T15:49:48.682Z,68.9
2016-05-23T15:50:49.091Z,68.64
2016-05-23T15:51:48.876Z,68.54
2016-05-23T15:52:48.878Z,69.31
2016-05-23T15:53:48.881Z,68.99
2016-05-23T15:54:48.873Z,68.54
2016-05-23T15:55:48.946Z,68.84
2016-05-23T15:56:48.942Z,68.44
2016-05-23T15:57:49.154Z,68.54
2016-05-23T15:58:48.978Z,68.54
2016-05-23T15:59:49.203Z,68.64
2016-05-23T16:00:49.011Z,68.54
2016-05-23T16:01:49.007Z,68.54
2016-05-23T16:02:48.814Z,68.93
2016-05-23T16:03:48.825Z,68.54
2016-05-23T16:04:49.227Z,68.84
2016-05-23T16:05:49.030Z,68.74
2016-05-23T16:06:49.035Z,68.35
2016-05-23T16:07:49.041Z,68.64
2016-05-23T16:08:49.047Z,68.74
2016-05-23T16:09:49.036Z,68.26
2016-05-23T16:10:48.883Z,68.54
2016-05-23T16:11:49.246Z,67.97
2016-05-23T16:12:49.250Z,68.26
2016-05-23T16:13:49.239Z,67.97
2016-05-23T16:14:49.102Z,67.87
2016-05-23T16:15:49.058Z,67.77
2016-05-23T16:16:49.046Z,68.06
2016-05-23T16:17:49.033Z,67.87
2016-05-23T16:18:48.833Z,67.87
2016-05-23T16:19:49.242Z,67.97
2016-05-23T16:20:49.245Z,67.77
2016-05-23T16:21:49.045Z,68.06
2016-05-23T16:22:48.828Z,68.06
2016-05-23T16:23:49.237Z,67.68
2016-05-23T16:24:49.239Z,67.52
2016-05-23T16:25:49.242Z,67.39
2016-05-23T16:26:49.042Z,67.42
2016-05-23T16:27:49.045Z,67.29
2016-05-23T16:28:49.032Z,67.52
2016-05-23T16:29:49.442Z,67.1
2016-05-23T16:30:49.241Z,67.13
2016-05-23T16:31:49.041Z,67.13
2016-05-23T16:32:48.840Z,67.42
2016-05-23T16:33:48.826Z,67.13
2016-05-23T16:34:49.032Z,66.85
2016-05-23T16:35:49.035Z,66.85
2016-05-23T16:36:48.851Z,66.75
2016-05-23T16:37:49.040Z,66.85
2016-05-23T16:38:49.231Z,66.55
2016-05-23T16:39:49.234Z,66.75
2016-05-23T16:40:49.033Z,66.75
2016-05-23T16:41:49.035Z,66.65
2016-05-23T16:42:49.038Z,66.55
2016-05-23T16:43:48.823Z,66.65
2016-05-23T16:44:49.232Z,66.65
2016-05-23T16:45:49.031Z,66.55
2016-05-23T16:46:48.830Z,66.69
2016-05-23T16:47:49.036Z,66.59
2016-05-23T16:48:49.039Z,66.39
2016-05-23T16:49:48.667Z,66.49
2016-05-23T16:50:49.029Z,66.59
2016-05-23T16:51:49.078Z,66.3
2016-05-23T16:52:49.034Z,66.39
2016-05-23T16:53:49.240Z,66.39
2016-05-23T16:54:49.024Z,66.3
2016-05-23T16:55:49.230Z,66.39
2016-05-23T16:56:49.233Z,66.3
2016-05-23T16:57:49.033Z,66.69
2016-05-23T16:58:49.238Z,66.69
2016-05-23T16:59:49.350Z,66.59
2016-05-23T17:00:49.243Z,66.88
2016-05-23T17:01:49.230Z,66.88
2016-05-23T17:02:49.030Z,66.69
2016-05-23T17:03:48.814Z,66.78
2016-05-23T17:04:49.035Z,66.78
2016-05-23T17:05:49.022Z,66.97
2016-05-23T17:06:49.227Z,66.78
2016-05-23T17:07:48.824Z,66.88
2016-05-23T17:08:49.030Z,66.97
2016-05-23T17:09:48.814Z,66.78
2016-05-23T17:10:49.036Z,67.36
2016-05-23T17:11:48.820Z,67.16
2016-05-23T17:12:49.229Z,67.26
2016-05-23T17:13:49.044Z,67.16
2016-05-23T17:14:49.906Z,67.16
2016-05-23T17:15:49.034Z,67.26
2016-05-23T17:16:48.817Z,67.26
2016-05-23T17:17:48.679Z,67.26
2016-05-23T17:18:49.026Z,67.26
2016-05-23T17:19:49.013Z,67.46
2016-05-23T17:20:49.015Z,67.26
2016-05-23T17:21:48.815Z,67.74
2016-05-23T17:22:49.020Z,67.26
2016-05-23T17:23:48.867Z,67.16
2016-05-23T17:24:49.027Z,67.46
2016-05-23T17:25:49.232Z,67.36
2016-05-23T17:26:49.220Z,67.36
2016-05-23T17:27:49.019Z,67.36
2016-05-23T17:28:49.225Z,67.46
2016-05-23T17:29:49.228Z,67.55
2016-05-23T17:30:49.027Z,67.36
2016-05-23T17:31:48.811Z,67.36
2016-05-23T17:32:49.017Z,67.36
2016-05-23T17:33:49.222Z,67.46
2016-05-23T17:34:49.022Z,67.07
2016-05-23T17:35:49.025Z,67.36
2016-05-23T17:36:48.808Z,67.36
2016-05-23T17:37:49.218Z,67.16
2016-05-23T17:38:49.221Z,67.46
2016-05-23T17:39:49.223Z,67.36
2016-05-23T17:40:49.024Z,67.16
2016-05-23T17:41:48.807Z,67.16
2016-05-23T17:42:49.012Z,67.36
2016-05-23T17:43:49.015Z,67.26
2016-05-23T17:44:49.221Z,67.26
2016-05-23T17:45:48.818Z,67.26
2016-05-23T17:46:49.023Z,67.16
2016-05-23T17:47:48.870Z,67.26
2016-05-23T17:48:49.060Z,67.16
2016-05-23T17:49:49.015Z,67.26
2016-05-23T17:50:49.221Z,67.16
2016-05-23T17:51:49.021Z,67.16
2016-05-23T17:52:49.226Z,67.46
2016-05-23T17:53:48.854Z,67.16
2016-05-23T17:54:49.013Z,67.36
2016-05-23T17:55:49.017Z,67.36
2016-05-23T17:56:48.817Z,67.36
2016-05-23T17:57:49.209Z,66.97
2016-05-23T17:58:49.228Z,66.97
2016-05-23T17:59:49.027Z,66.88
2016-05-23T18:00:49.014Z,66.88
2016-05-23T18:01:48.813Z,66.78
2016-05-23T18:02:49.019Z,66.88
2016-05-23T18:03:48.647Z,66.78
2016-05-23T18:04:49.009Z,66.78
2016-05-23T18:05:48.808Z,66.88
2016-05-23T18:06:49.014Z,67.07
2016-05-23T18:07:49.002Z,66.59
2016-05-23T18:08:49.223Z,66.88
2016-05-23T18:09:49.226Z,66.49
2016-05-23T18:10:49.009Z,66.78
2016-05-23T18:11:49.216Z,66.69
2016-05-23T18:12:48.796Z,66.88
2016-05-23T18:13:49.002Z,66.39
2016-05-23T18:14:49.224Z,66.39
2016-05-23T18:15:49.007Z,66.39
2016-05-23T18:16:49.009Z,66.3
2016-05-23T18:17:48.856Z,66.59
2016-05-23T18:18:49.001Z,66.59
2016-05-23T18:19:49.206Z,66.39
2016-05-23T18:20:49.021Z,66.2
2016-05-23T18:21:48.804Z,66.3
2016-05-23T18:22:48.854Z,66.3
2016-05-23T18:23:49.014Z,66.39
2016-05-23T18:24:48.797Z,66.3
2016-05-23T18:25:49.003Z,66.39
2016-05-23T18:26:49.209Z,66.01
2016-05-23T18:27:49.009Z,66.49
2016-05-23T18:28:49.011Z,66.01
2016-05-23T18:29:49.686Z,66.3
2016-05-23T18:30:49.220Z,66.2
2016-05-23T18:31:49.206Z,65.81
2016-05-23T18:32:49.006Z,65.81
2016-05-23T18:33:49.211Z,65.72
2016-05-23T18:34:49.214Z,65.53
2016-05-23T18:35:49.217Z,65.72
2016-05-23T18:36:48.799Z,65.91
2016-05-23T18:37:49.051Z,65.81
2016-05-23T18:38:48.804Z,65.53
2016-05-23T18:39:48.807Z,65.43
2016-05-23T18:40:49.199Z,65.72
2016-05-23T18:41:48.796Z,65.81
2016-05-23T18:42:49.002Z,65.63
2016-05-23T18:43:48.848Z,65.63
2016-05-23T18:44:48.866Z,65.63
2016-05-23T18:45:48.838Z,65.53
2016-05-23T18:46:48.996Z,65.53
2016-05-23T18:47:49.000Z,65.33
2016-05-23T18:48:49.002Z,65.43
2016-05-23T18:49:48.990Z,65.24
2016-05-23T18:50:49.007Z,65.53
2016-05-23T18:51:48.792Z,65.43
2016-05-23T18:52:48.731Z,65.33
2016-05-23T18:53:48.797Z,65.14
2016-05-23T18:54:49.003Z,65.11
2016-05-23T18:55:48.990Z,65.33
2016-05-23T18:56:48.634Z,65.2
2016-05-23T18:57:48.792Z,65.3
2016-05-23T18:58:48.998Z,65.33
2016-05-23T18:59:49.750Z,65.3
2016-05-23T19:00:48.784Z,65.43
2016-05-23T19:01:49.037Z,65.3
2016-05-23T19:02:48.978Z,65.4
2016-05-23T19:03:48.996Z,65.3
2016-05-23T19:04:49.202Z,65.5
2016-05-23T19:05:48.829Z,65.5
2016-05-23T19:06:49.036Z,65.4
2016-05-23T19:07:49.194Z,65.4
2016-05-23T19:08:48.994Z,65.59
2016-05-23T19:09:49.199Z,65.59
2016-05-23T19:10:48.983Z,65.4
2016-05-23T19:11:49.188Z,65.59
2016-05-23T19:12:48.785Z,65.11
2016-05-23T19:13:48.992Z,65.01
2016-05-23T19:14:49.197Z,65.01
2016-05-23T19:15:48.996Z,64.92
2016-05-23T19:16:48.999Z,65.2
2016-05-23T19:17:48.830Z,65.01
2016-05-23T19:18:48.990Z,65.3
2016-05-23T19:19:49.023Z,65.2
2016-05-23T19:20:48.979Z,65.2
2016-05-23T19:21:49.185Z,65.01
2016-05-23T19:22:48.984Z,65.11
2016-05-23T19:23:49.175Z,65.2
2016-05-23T19:24:48.787Z,65.01
2016-05-23T19:25:48.976Z,65.2
2016-05-23T19:26:48.776Z,64.92
2016-05-23T19:27:49.201Z,65.01
2016-05-23T19:28:49.189Z,64.82
2016-05-23T19:29:48.987Z,64.92
2016-05-23T19:30:48.975Z,65.01
2016-05-23T19:31:48.774Z,64.73
2016-05-23T19:32:48.793Z,65.2
2016-05-23T19:33:48.967Z,64.82
2016-05-23T19:34:49.017Z,64.63
2016-05-23T19:35:48.973Z,65.2
2016-05-23T19:36:48.975Z,64.82
2016-05-23T19:37:49.180Z,64.79
2016-05-23T19:38:49.183Z,64.89
2016-05-23T19:39:48.968Z,64.82
2016-05-23T19:40:48.971Z,64.79
2016-05-23T19:41:48.974Z,64.59
2016-05-23T19:42:48.960Z,64.63
2016-05-23T19:43:49.010Z,64.73
2016-05-23T19:44:48.762Z,64.92
2016-05-23T19:45:48.765Z,64.79
2016-05-23T19:46:48.752Z,64.59
2016-05-23T19:47:48.755Z,64.79
2016-05-23T19:48:48.960Z,64.59
2016-05-23T19:49:48.963Z,65.08
2016-05-23T19:50:48.965Z,64.69
2016-05-23T19:51:48.954Z,64.79
2016-05-23T19:52:48.815Z,64.59
2016-05-23T19:53:49.162Z,64.89
2016-05-23T19:54:49.164Z,64.69
2016-05-23T19:55:49.167Z,64.98
2016-05-23T19:56:48.950Z,64.59
2016-05-23T19:57:48.750Z,64.79
2016-05-23T19:58:48.957Z,64.4
2016-05-23T19:59:49.053Z,64.69
2016-05-23T20:00:49.150Z,65.08
2016-05-23T20:01:48.745Z,65.08
2016-05-23T20:02:49.155Z,64.69
2016-05-23T20:03:49.157Z,65.08
2016-05-23T20:04:49.145Z,64.69
2016-05-23T20:05:48.803Z,64.98
2016-05-23T20:06:48.947Z,64.5
2016-05-23T20:07:48.949Z,64.79
2016-05-23T20:08:48.952Z,64.59
2016-05-23T20:09:49.142Z,64.98
2016-05-23T20:10:48.942Z,64.89
2016-05-23T20:11:48.944Z,64.89
2016-05-23T20:12:48.947Z,64.79
2016-05-23T20:13:49.137Z,64.5
2016-05-23T20:14:49.265Z,64.79
2016-05-23T20:15:48.783Z,64.69
2016-05-23T20:16:48.943Z,64.59
2016-05-23T20:17:48.727Z,64.59
2016-05-23T20:18:48.729Z,65.17
2016-05-23T20:19:48.935Z,64.5
2016-05-23T20:20:48.734Z,65.08
2016-05-23T20:21:49.127Z,65.08
2016-05-23T20:22:49.129Z,65.08
2016-05-23T20:23:49.133Z,65.17
2016-05-23T20:24:48.729Z,64.59
2016-05-23T20:25:49.138Z,64.4
2016-05-23T20:26:48.719Z,64.98
2016-05-23T20:27:49.129Z,64.5
2016-05-23T20:28:49.131Z,64.69
2016-05-23T20:29:49.461Z,64.69
2016-05-23T20:30:48.714Z,64.98
2016-05-23T20:31:49.123Z,64.59
2016-05-23T20:32:49.125Z,64.89
2016-05-23T20:33:48.925Z,64.69
2016-05-23T20:34:48.725Z,64.98
2016-05-23T20:35:49.119Z,64.95
2016-05-23T20:36:48.917Z,64.66
2016-05-23T20:37:49.108Z,64.69
2016-05-23T20:38:48.923Z,64.86
2016-05-23T20:39:48.910Z,64.37
2016-05-23T20:40:49.116Z,65.05
2016-05-23T20:41:49.119Z,64.56
2016-05-23T20:42:48.919Z,64.66
2016-05-23T20:43:49.108Z,64.95
2016-05-23T20:44:48.721Z,64.95
2016-05-23T20:45:48.691Z,64.56
2016-05-23T20:46:48.758Z,64.56
2016-05-23T20:47:48.696Z,65.05
2016-05-23T20:48:49.107Z,64.66
2016-05-23T20:49:49.110Z,64.56
2016-05-23T20:50:48.893Z,64.76
2016-05-23T20:51:48.895Z,64.66
2016-05-23T20:52:49.101Z,64.86
2016-05-23T20:53:48.698Z,64.47
2016-05-23T20:54:48.701Z,64.76
2016-05-23T20:55:48.891Z,64.66
2016-05-23T20:56:49.096Z,64.95
2016-05-23T20:57:49.099Z,64.66
2016-05-23T20:58:49.086Z,64.95
2016-05-23T20:59:49.245Z,64.76
2016-05-23T21:00:49.092Z,65.05
2016-05-23T21:01:48.673Z,64.56
2016-05-23T21:02:48.878Z,64.56
2016-05-23T21:03:48.881Z,64.86
2016-05-23T21:04:49.087Z,64.56
2016-05-23T21:05:49.090Z,64.95
2016-05-23T21:06:48.889Z,64.76
2016-05-23T21:07:48.673Z,64.86
2016-05-23T21:08:48.707Z,64.47
2016-05-23T21:09:48.866Z,64.95
2016-05-23T21:10:48.868Z,64.86
2016-05-23T21:11:48.669Z,64.95
2016-05-23T21:12:48.875Z,64.66
2016-05-23T21:13:48.861Z,64.56
2016-05-23T21:14:48.707Z,64.66
2016-05-23T21:15:49.069Z,64.76
2016-05-23T21:16:49.071Z,64.66
2016-05-23T21:17:49.074Z,64.56
2016-05-23T21:18:48.860Z,64.66
2016-05-23T21:19:48.705Z,64.47
2016-05-23T21:20:48.661Z,64.95
2016-05-23T21:21:49.054Z,64.76
2016-05-23T21:22:48.854Z,64.86
2016-05-23T21:23:48.857Z,64.28
2016-05-23T21:24:48.860Z,64.18
2016-05-23T21:25:48.846Z,65.14
2016-05-23T21:26:48.849Z,64.76
2016-05-23T21:27:48.851Z,64.05
2016-05-23T21:28:48.651Z,64.28
2016-05-23T21:29:48.842Z,64.66
2016-05-23T21:30:49.048Z,64.76
2016-05-23T21:31:48.847Z,64.66
2016-05-23T21:32:48.834Z,64.25
2016-05-23T21:33:49.055Z,64.47
2016-05-23T21:34:48.840Z,64.66
2016-05-23T21:35:48.670Z,64.82
2016-05-23T21:36:48.845Z,64.76
2016-05-23T21:37:48.831Z,64.63
2016-05-23T21:38:48.834Z,65.01
2016-05-23T21:39:48.836Z,64.34
2016-05-23T21:40:48.824Z,64.63
2016-05-23T21:41:48.625Z,64.73
2016-05-23T21:42:49.049Z,64.82
2016-05-23T21:43:48.833Z,64.86
2016-05-23T21:44:48.835Z,64.82
2016-05-23T21:45:48.666Z,64.63
2016-05-23T21:46:48.621Z,64.82
2016-05-23T21:47:48.828Z,64.82
2016-05-23T21:48:48.611Z,64.82
2016-05-23T21:49:48.818Z,64.73
2016-05-23T21:50:48.820Z,64.63
2016-05-23T21:51:48.823Z,64.53
2016-05-23T21:52:48.810Z,64.63
2016-05-23T21:53:48.609Z,64.43
2016-05-23T21:54:49.018Z,64.63
2016-05-23T21:55:48.599Z,64.63
2016-05-23T21:56:48.804Z,64.63
2016-05-23T21:57:48.604Z,64.82
2016-05-23T21:58:48.795Z,64.15
2016-05-23T21:59:49.016Z,64.43
2016-05-23T22:00:48.800Z,64.92
2016-05-23T22:01:48.443Z,64.82
2016-05-23T22:02:48.789Z,64.63
2016-05-23T22:03:48.589Z,64.82
2016-05-23T22:04:48.795Z,64.92
2016-05-23T22:05:49.001Z,65.01
2016-05-23T22:06:48.785Z,65.11
2016-05-23T22:07:48.991Z,65.01
2016-05-23T22:08:48.790Z,64.43
2016-05-23T22:09:48.777Z,64.63
2016-05-23T22:10:48.577Z,64.63
2016-05-23T22:11:48.579Z,64.73
2016-05-23T22:12:48.989Z,65.01
2016-05-23T22:13:48.991Z,65.01
2016-05-23T22:14:48.978Z,65.11
2016-05-23T22:15:48.980Z,64.15
2016-05-23T22:16:48.984Z,65.01
2016-05-23T22:17:48.768Z,65.01
2016-05-23T22:18:48.974Z,64.34
2016-05-23T22:19:48.569Z,64.92
2016-05-23T22:20:48.588Z,64.73
2016-05-23T22:21:48.779Z,64.43
2016-05-23T22:22:48.968Z,64.82
2016-05-23T22:23:48.612Z,64.53
2016-05-23T22:24:48.552Z,64.92
2016-05-23T22:25:48.960Z,64.92
2016-05-23T22:26:48.979Z,65.11
2016-05-23T22:27:48.591Z,65.11
2016-05-23T22:28:48.766Z,64.15
2016-05-23T22:29:48.597Z,64.34
2016-05-23T22:30:48.584Z,65.01
2016-05-23T22:31:48.759Z,64.43
2016-05-23T22:32:48.589Z,64.53
2016-05-23T22:33:48.951Z,64.43
2016-05-23T22:34:48.735Z,64.43
2016-05-23T22:35:48.535Z,65.11
2016-05-23T22:36:48.537Z,64.15
2016-05-23T22:37:48.524Z,64.53
2016-05-23T22:38:48.730Z,64.92
2016-05-23T22:39:48.530Z,65.01
2016-05-23T22:40:48.938Z,64.53
2016-05-23T22:41:48.723Z,64.73
2016-05-23T22:42:48.741Z,64.43
2016-05-23T22:43:48.728Z,64.31
2016-05-23T22:44:48.934Z,64.31
2016-05-23T22:45:48.921Z,65.01
2016-05-23T22:46:48.767Z,64.63
2016-05-23T22:47:48.708Z,64.12
2016-05-23T22:48:48.913Z,64.22
2016-05-23T22:49:48.713Z,65.08
2016-05-23T22:50:48.919Z,64.25
2016-05-23T22:51:48.702Z,64.22
2016-05-23T22:52:48.908Z,64.31
2016-05-23T22:53:48.724Z,65.01
2016-05-23T22:54:48.913Z,65.01
2016-05-23T22:55:48.698Z,64.98
2016-05-23T22:56:48.701Z,65.11
2016-05-23T22:57:48.922Z,64.22
2016-05-23T22:58:48.691Z,65.08
2016-05-23T22:59:48.693Z,65.11
2016-05-23T23:00:48.743Z,64.89
2016-05-23T23:01:48.682Z,64.69
2016-05-23T23:02:48.889Z,64.4
2016-05-23T23:03:48.687Z,65.08
2016-05-23T23:04:48.691Z,64.31
2016-05-23T23:05:48.881Z,64.22
2016-05-23T23:06:48.884Z,64.98
2016-05-23T23:07:48.683Z,64.12
2016-05-23T23:08:48.671Z,64.98
2016-05-23T23:09:48.469Z,64.31
2016-05-23T23:10:48.472Z,64.12
2016-05-23T23:11:48.881Z,64.98
2016-05-23T23:12:48.681Z,64.98
2016-05-23T23:13:48.683Z,64.98
2016-05-23T23:14:48.297Z,64.98
2016-05-23T23:15:48.674Z,64.12
2016-05-23T23:16:48.864Z,64.98
2016-05-23T23:17:48.866Z,64.98
2016-05-23T23:18:48.650Z,65.08
2016-05-23T23:19:48.653Z,65.08
2016-05-23T23:20:48.655Z,64.98
2016-05-23T23:21:48.658Z,64.89
2016-05-23T23:22:48.849Z,64.22
2016-05-23T23:23:48.696Z,64.98
2016-05-23T23:24:48.463Z,64.12
2016-05-23T23:25:48.857Z,64.89
2016-05-23T23:26:48.843Z,64.4
2016-05-23T23:27:48.643Z,65.08
2016-05-23T23:28:48.646Z,64.98
2016-05-23T23:29:48.836Z,64.98
2016-05-23T23:30:48.839Z,64.98
2016-05-23T23:31:48.826Z,64.22
2016-05-23T23:32:48.828Z,65.08
2016-05-23T23:33:48.629Z,64.69
2016-05-23T23:34:48.631Z,64.98
2016-05-23T23:35:48.618Z,64.12
2016-05-23T23:36:48.464Z,64.89
2016-05-23T23:37:48.623Z,64.89
2016-05-23T23:38:48.656Z,64.5
2016-05-23T23:39:48.628Z,65.08
2016-05-23T23:40:48.662Z,64.4
2016-05-23T23:41:48.634Z,64.5
2016-05-23T23:42:48.606Z,64.5
2016-05-23T23:43:48.811Z,64.69
2016-05-23T23:44:48.689Z,64.4
2016-05-23T23:45:48.801Z,64.6
2016-05-23T23:46:48.647Z,64.69
2016-05-23T23:47:48.588Z,64.5
2016-05-23T23:48:48.434Z,64.4
2016-05-23T23:49:48.593Z,64.98
2016-05-23T23:50:48.393Z,64.31
2016-05-23T23:51:48.380Z,64.4
2016-05-23T23:52:48.586Z,64.69
2016-05-23T23:53:48.791Z,64.6
2016-05-23T23:54:48.794Z,64.31
2016-05-23T23:55:48.782Z,64.98
2016-05-23T23:56:48.580Z,64.79
2016-05-23T23:57:48.771Z,64.69
2016-05-23T23:58:48.774Z,64.5
2016-05-23T23:59:48.573Z,64.69
